createdAt,value
2018-09-01T00:00:07.677Z,0
2018-09-01T00:01:16.976Z,0
2018-09-01T00:02:26.813Z,0
2018-09-01T00:03:36.111Z,0
2018-09-01T00:04:45.951Z,0
2018-09-01T00:05:55.521Z,0
2018-09-01T00:07:05.639Z,0
2018-09-01T00:08:15.471Z,0
2018-09-01T00:09:25.043Z,0
2018-09-01T00:10:34.887Z,0
2018-09-01T00:11:44.185Z,0
2018-09-01T00:12:54.024Z,0
2018-09-01T00:14:03.054Z,0
2018-09-01T00:15:12.892Z,0
2018-09-01T00:16:22.189Z,0
2018-09-01T00:17:31.488Z,0
2018-09-01T00:18:41.593Z,0
2018-09-01T00:19:51.425Z,0
2018-09-01T00:21:00.991Z,0
2018-09-01T00:22:10.833Z,0
2018-09-01T00:23:20.678Z,0
2018-09-01T00:24:30.519Z,0
2018-09-01T00:25:40.365Z,0
2018-09-01T00:26:50.473Z,0
2018-09-01T00:28:00.359Z,0
2018-09-01T00:29:09.938Z,0
2018-09-01T00:30:19.521Z,0
2018-09-01T00:31:28.822Z,0
2018-09-01T00:32:38.662Z,0
2018-09-01T00:33:48.505Z,0
2018-09-01T00:34:58.351Z,0
2018-09-01T00:36:08.464Z,0
2018-09-01T00:37:18.333Z,0
2018-09-01T00:38:28.199Z,0
2018-09-01T00:39:38.043Z,0
2018-09-01T00:40:48.159Z,0
2018-09-01T00:41:57.732Z,0
2018-09-01T00:43:07.308Z,0
2018-09-01T00:44:17.145Z,0
2018-09-01T00:45:26.445Z,0
2018-09-01T00:46:36.013Z,0
2018-09-01T00:47:45.313Z,0
2018-09-01T00:48:55.152Z,0
2018-09-01T00:50:04.988Z,0
2018-09-01T00:51:14.830Z,0
2018-09-01T00:52:23.891Z,0
2018-09-01T00:53:33.735Z,0
2018-09-01T00:54:43.316Z,0
2018-09-01T00:55:52.899Z,0
2018-09-01T00:57:02.465Z,0
2018-09-01T00:58:12.305Z,0
2018-09-01T00:59:22.142Z,0
2018-09-01T01:00:31.980Z,0
2018-09-01T01:01:41.274Z,0
2018-09-01T01:02:51.116Z,0
2018-09-01T01:04:01.229Z,0
2018-09-01T01:05:10.538Z,0
2018-09-01T01:06:20.115Z,0
2018-09-01T01:07:29.950Z,0
2018-09-01T01:08:39.796Z,0
2018-09-01T01:09:49.364Z,0
2018-09-01T01:10:58.932Z,0
2018-09-01T01:12:08.504Z,0
2018-09-01T01:13:18.344Z,0
2018-09-01T01:14:27.913Z,0
2018-09-01T01:15:37.487Z,0
2018-09-01T01:16:47.067Z,0
2018-09-01T01:17:56.647Z,0
2018-09-01T01:19:06.215Z,0
2018-09-01T01:20:16.333Z,0
2018-09-01T01:21:25.902Z,0
2018-09-01T01:22:35.202Z,0
2018-09-01T01:23:45.312Z,0
2018-09-01T01:24:54.885Z,0
2018-09-01T01:26:04.997Z,0
2018-09-01T01:27:15.107Z,0
2018-09-01T01:28:24.679Z,0
2018-09-01T01:29:33.980Z,0
2018-09-01T01:30:43.281Z,0
2018-09-01T01:31:52.855Z,0
2018-09-01T01:33:02.690Z,0
2018-09-01T01:34:12.526Z,0
2018-09-01T01:35:22.367Z,0
2018-09-01T01:36:31.935Z,0
2018-09-01T01:37:41.772Z,0
2018-09-01T01:38:51.609Z,0
2018-09-01T01:40:01.447Z,0
2018-09-01T01:41:10.748Z,0
2018-09-01T01:42:20.584Z,0
2018-09-01T01:43:29.616Z,0
2018-09-01T01:44:39.186Z,0
2018-09-01T01:45:49.292Z,0
2018-09-01T01:46:59.138Z,0
2018-09-01T01:48:08.437Z,0
2018-09-01T01:49:18.597Z,0
2018-09-01T01:50:27.898Z,0
2018-09-01T01:51:37.471Z,0
2018-09-01T01:52:47.310Z,0
2018-09-01T01:53:56.882Z,0
2018-09-01T01:55:06.453Z,0
2018-09-01T01:56:15.756Z,0
2018-09-01T01:57:25.610Z,0
2018-09-01T01:58:35.444Z,0
2018-09-01T01:59:45.016Z,0
2018-09-01T02:00:54.852Z,0
2018-09-01T02:02:04.418Z,0
2018-09-01T02:03:13.994Z,0
2018-09-01T02:04:23.830Z,0
2018-09-01T02:05:33.942Z,0
2018-09-01T02:06:44.058Z,0
2018-09-01T02:07:54.194Z,0
2018-09-01T02:09:03.759Z,0
2018-09-01T02:10:13.333Z,0
2018-09-01T02:11:22.912Z,0
2018-09-01T02:12:32.488Z,0
2018-09-01T02:13:42.331Z,0
2018-09-01T02:14:52.171Z,0
2018-09-01T02:16:02.301Z,0
2018-09-01T02:17:11.875Z,0
2018-09-01T02:18:21.990Z,0
2018-09-01T02:19:31.023Z,0
2018-09-01T02:20:40.864Z,0
2018-09-01T02:21:50.978Z,0
2018-09-01T02:23:00.556Z,0
2018-09-01T02:24:10.131Z,0
2018-09-01T02:25:19.704Z,0
2018-09-01T02:26:29.819Z,0
2018-09-01T02:27:39.922Z,0
2018-09-01T02:28:49.759Z,0
2018-09-01T02:29:59.324Z,0
2018-09-01T02:31:09.174Z,0
2018-09-01T02:32:19.016Z,0
2018-09-01T02:33:28.861Z,0
2018-09-01T02:34:38.710Z,0
2018-09-01T02:35:48.286Z,0
2018-09-01T02:36:58.150Z,0
2018-09-01T02:38:08.259Z,0
2018-09-01T02:39:18.104Z,0
2018-09-01T02:40:27.409Z,0
2018-09-01T02:41:37.263Z,0
2018-09-01T02:42:47.106Z,0
2018-09-01T02:43:56.679Z,0
2018-09-01T02:45:06.262Z,0
2018-09-01T02:46:16.391Z,0
2018-09-01T02:47:26.017Z,0
2018-09-01T02:48:35.592Z,0
2018-09-01T02:49:44.891Z,0
2018-09-01T02:50:54.195Z,0
2018-09-01T02:52:04.034Z,0
2018-09-01T02:53:13.619Z,0
2018-09-01T02:54:22.928Z,0
2018-09-01T02:55:33.043Z,0
2018-09-01T02:56:42.631Z,0
2018-09-01T02:57:52.473Z,0
2018-09-01T02:59:01.852Z,0
2018-09-01T03:00:11.431Z,0
2018-09-01T03:01:21.001Z,0
2018-09-01T03:02:30.836Z,0
2018-09-01T03:03:40.676Z,0
2018-09-01T03:04:50.245Z,0
2018-09-01T03:06:00.353Z,0
2018-09-01T03:07:10.207Z,0
2018-09-01T03:08:20.056Z,0
2018-09-01T03:09:29.629Z,0
2018-09-01T03:10:39.246Z,0
2018-09-01T03:11:48.818Z,0
2018-09-01T03:12:58.385Z,0
2018-09-01T03:14:07.955Z,0
2018-09-01T03:15:17.527Z,0
2018-09-01T03:16:27.632Z,0
2018-09-01T03:17:37.477Z,0
2018-09-01T03:18:46.771Z,0
2018-09-01T03:19:56.356Z,0
2018-09-01T03:21:06.465Z,0
2018-09-01T03:22:16.630Z,0
2018-09-01T03:23:26.737Z,0
2018-09-01T03:24:36.852Z,0
2018-09-01T03:25:46.148Z,0
2018-09-01T03:26:55.474Z,0
2018-09-01T03:28:05.657Z,0
2018-09-01T03:29:15.499Z,0
2018-09-01T03:30:25.755Z,0
2018-09-01T03:31:35.339Z,0
2018-09-01T03:32:45.453Z,0
2018-09-01T03:33:55.023Z,0
2018-09-01T03:35:04.588Z,0
2018-09-01T03:36:14.434Z,0
2018-09-01T03:37:24.271Z,0
2018-09-01T03:38:34.388Z,0
2018-09-01T03:39:44.238Z,0
2018-09-01T03:40:53.541Z,0
2018-09-01T03:42:03.385Z,0
2018-09-01T03:43:13.232Z,0
2018-09-01T03:44:22.808Z,0
2018-09-01T03:45:32.382Z,0
2018-09-01T03:46:42.236Z,0
2018-09-01T03:47:51.805Z,0
2018-09-01T03:49:01.655Z,0
2018-09-01T03:50:11.236Z,0
2018-09-01T03:51:21.080Z,0
2018-09-01T03:52:30.925Z,0
2018-09-01T03:53:41.036Z,0
2018-09-01T03:54:51.145Z,0
2018-09-01T03:56:00.443Z,0
2018-09-01T03:57:10.308Z,0
2018-09-01T03:58:19.613Z,0
2018-09-01T03:59:28.642Z,0
2018-09-01T04:00:37.936Z,0
2018-09-01T04:01:47.785Z,0
2018-09-01T04:02:57.622Z,0
2018-09-01T04:04:06.934Z,4
2018-09-01T04:05:16.509Z,4
2018-09-01T04:06:26.345Z,4
2018-09-01T04:07:36.463Z,4
2018-09-01T04:08:46.306Z,4
2018-09-01T04:09:56.447Z,4
2018-09-01T04:11:06.341Z,8
2018-09-01T04:12:16.183Z,8
2018-09-01T04:13:26.023Z,12
2018-09-01T04:14:35.863Z,12
2018-09-01T04:15:45.984Z,12
2018-09-01T04:16:55.559Z,20
2018-09-01T04:18:05.669Z,20
2018-09-01T04:19:15.528Z,24
2018-09-01T04:20:25.363Z,28
2018-09-01T04:21:34.665Z,36
2018-09-01T04:22:44.503Z,40
2018-09-01T04:23:53.805Z,48
2018-09-01T04:25:03.393Z,52
2018-09-01T04:26:13.230Z,64
2018-09-01T04:27:22.799Z,72
2018-09-01T04:28:32.915Z,84
2018-09-01T04:29:42.764Z,96
2018-09-01T04:30:52.064Z,108
2018-09-01T04:32:02.144Z,124
2018-09-01T04:33:12.444Z,136
2018-09-01T04:34:22.290Z,144
2018-09-01T04:35:32.143Z,160
2018-09-01T04:36:41.714Z,176
2018-09-01T04:37:51.286Z,196
2018-09-01T04:39:00.860Z,216
2018-09-01T04:40:10.157Z,240
2018-09-01T04:41:19.724Z,260
2018-09-01T04:42:29.562Z,288
2018-09-01T04:43:39.147Z,312
2018-09-01T04:44:49.277Z,332
2018-09-01T04:45:58.305Z,356
2018-09-01T04:47:08.236Z,384
2018-09-01T04:48:18.314Z,408
2018-09-01T04:49:27.931Z,436
2018-09-01T04:50:38.043Z,460
2018-09-01T04:51:48.152Z,488
2018-09-01T04:52:58.272Z,516
2018-09-01T04:54:08.385Z,544
2018-09-01T04:55:18.272Z,572
2018-09-01T04:56:28.383Z,600
2018-09-01T04:57:38.224Z,636
2018-09-01T04:58:47.525Z,664
2018-09-01T04:59:57.638Z,692
2018-09-01T05:01:08.097Z,708
2018-09-01T05:02:18.681Z,732
2018-09-01T05:03:28.527Z,792
2018-09-01T05:04:38.091Z,840
2018-09-01T05:05:48.202Z,864
2018-09-01T05:06:57.775Z,880
2018-09-01T05:08:07.883Z,908
2018-09-01T05:09:17.725Z,952
2018-09-01T05:10:27.576Z,984
2018-09-01T05:11:36.876Z,1016
2018-09-01T05:12:46.446Z,1056
2018-09-01T05:13:56.289Z,1076
2018-09-01T05:15:06.137Z,1080
2018-09-01T05:16:15.708Z,1072
2018-09-01T05:17:25.551Z,1088
2018-09-01T05:18:34.852Z,1112
2018-09-01T05:19:44.149Z,1148
2018-09-01T05:20:54.037Z,1180
2018-09-01T05:22:04.151Z,1208
2018-09-01T05:23:14.267Z,1232
2018-09-01T05:24:24.113Z,1252
2018-09-01T05:25:34.235Z,1272
2018-09-01T05:26:43.533Z,1300
2018-09-01T05:27:53.384Z,1316
2018-09-01T05:29:03.221Z,1336
2018-09-01T05:30:13.352Z,1348
2018-09-01T05:31:23.192Z,1348
2018-09-01T05:32:32.818Z,1356
2018-09-01T05:33:42.669Z,1376
2018-09-01T05:34:51.976Z,1412
2018-09-01T05:36:01.290Z,1428
2018-09-01T05:37:11.413Z,1456
2018-09-01T05:38:21.262Z,1496
2018-09-01T05:39:31.104Z,1532
2018-09-01T05:40:40.683Z,1560
2018-09-01T05:41:50.535Z,1620
2018-09-01T05:43:00.109Z,1724
2018-09-01T05:44:09.411Z,1824
2018-09-01T05:45:19.031Z,1860
2018-09-01T05:46:28.336Z,1844
2018-09-01T05:47:37.909Z,1844
2018-09-01T05:48:48.023Z,1844
2018-09-01T05:49:57.590Z,1844
2018-09-01T05:51:07.155Z,1876
2018-09-01T05:52:16.739Z,1916
2018-09-01T05:53:26.586Z,1944
2018-09-01T05:54:35.892Z,1968
2018-09-01T05:55:45.456Z,1996
2018-09-01T05:56:55.563Z,2024
2018-09-01T05:58:04.863Z,2048
2018-09-01T05:59:14.510Z,2084
2018-09-01T06:00:24.431Z,2176
2018-09-01T06:01:34.308Z,2360
2018-09-01T06:02:43.869Z,2608
2018-09-01T06:03:53.707Z,2884
2018-09-01T06:05:03.289Z,3084
2018-09-01T06:06:13.997Z,3124
2018-09-01T06:07:23.965Z,3188
2018-09-01T06:08:33.810Z,3344
2018-09-01T06:09:43.650Z,3520
2018-09-01T06:10:53.493Z,3360
2018-09-01T06:12:03.075Z,3004
2018-09-01T06:13:12.932Z,2880
2018-09-01T06:14:23.056Z,2828
2018-09-01T06:15:32.929Z,2684
2018-09-01T06:16:42.494Z,2464
2018-09-01T06:17:52.026Z,2400
2018-09-01T06:19:01.094Z,2368
2018-09-01T06:20:11.001Z,2360
2018-09-01T06:21:20.845Z,2372
2018-09-01T06:22:30.465Z,2388
2018-09-01T06:23:40.306Z,2404
2018-09-01T06:24:50.329Z,2420
2018-09-01T06:25:59.964Z,2436
2018-09-01T06:27:09.532Z,2456
2018-09-01T06:28:18.888Z,2476
2018-09-01T06:29:28.458Z,2520
2018-09-01T06:30:38.572Z,2568
2018-09-01T06:31:48.680Z,2704
2018-09-01T06:32:58.831Z,2740
2018-09-01T06:34:08.805Z,3016
2018-09-01T06:35:18.925Z,3180
2018-09-01T06:36:28.770Z,3412
2018-09-01T06:37:38.421Z,3496
2018-09-01T06:38:47.787Z,3240
2018-09-01T06:39:57.633Z,2908
2018-09-01T06:41:07.212Z,2700
2018-09-01T06:42:17.059Z,2632
2018-09-01T06:43:26.904Z,2636
2018-09-01T06:44:36.474Z,2640
2018-09-01T06:45:46.320Z,2644
2018-09-01T06:46:55.627Z,2652
2018-09-01T06:48:05.749Z,2652
2018-09-01T06:49:15.594Z,2652
2018-09-01T06:50:24.893Z,2644
2018-09-01T06:51:35.018Z,2652
2018-09-01T06:52:45.391Z,2660
2018-09-01T06:53:54.962Z,2664
2018-09-01T06:55:05.072Z,2672
2018-09-01T06:56:14.909Z,2680
2018-09-01T06:57:24.746Z,2684
2018-09-01T06:58:34.050Z,2692
2018-09-01T06:59:43.622Z,2700
2018-09-01T07:00:53.732Z,2708
2018-09-01T07:02:03.580Z,2716
2018-09-01T07:03:13.560Z,2724
2018-09-01T07:04:23.403Z,2744
2018-09-01T07:05:32.442Z,2760
2018-09-01T07:06:42.280Z,2772
2018-09-01T07:07:51.852Z,2780
2018-09-01T07:09:01.857Z,2788
2018-09-01T07:10:11.163Z,2800
2018-09-01T07:11:21.277Z,2808
2018-09-01T07:12:31.131Z,2828
2018-09-01T07:13:40.991Z,2836
2018-09-01T07:14:51.104Z,2844
2018-09-01T07:16:01.214Z,2860
2018-09-01T07:17:11.062Z,2872
2018-09-01T07:18:20.367Z,2888
2018-09-01T07:19:29.935Z,2900
2018-09-01T07:20:40.044Z,2908
2018-09-01T07:21:49.883Z,2924
2018-09-01T07:22:59.742Z,2936
2018-09-01T07:24:09.573Z,2948
2018-09-01T07:25:19.413Z,2964
2018-09-01T07:26:29.257Z,2992
2018-09-01T07:27:39.152Z,3084
2018-09-01T07:28:48.726Z,3252
2018-09-01T07:29:58.023Z,3480
2018-09-01T07:31:08.603Z,3716
2018-09-01T07:32:19.348Z,4088
2018-09-01T07:33:28.643Z,4740
2018-09-01T07:34:38.494Z,5304
2018-09-01T07:35:48.070Z,5672
2018-09-01T07:36:57.928Z,5908
2018-09-01T07:38:07.507Z,5896
2018-09-01T07:39:17.616Z,6028
2018-09-01T07:40:27.475Z,6120
2018-09-01T07:41:37.058Z,6108
2018-09-01T07:42:46.628Z,6060
2018-09-01T07:43:55.980Z,6060
2018-09-01T07:45:06.103Z,6244
2018-09-01T07:46:15.671Z,6280
2018-09-01T07:47:25.512Z,6420
2018-09-01T07:48:35.096Z,6592
2018-09-01T07:49:44.673Z,6572
2018-09-01T07:50:54.253Z,6852
2018-09-01T07:52:03.834Z,6948
2018-09-01T07:53:13.969Z,6752
2018-09-01T07:54:23.544Z,6248
2018-09-01T07:55:33.662Z,6016
2018-09-01T07:56:43.227Z,5704
2018-09-01T07:57:53.077Z,5324
2018-09-01T07:59:02.663Z,5096
2018-09-01T08:00:12.236Z,4744
2018-09-01T08:01:21.554Z,4288
2018-09-01T08:02:31.665Z,3804
2018-09-01T08:03:41.243Z,3532
2018-09-01T08:04:50.549Z,3392
2018-09-01T08:06:00.405Z,3304
2018-09-01T08:07:10.242Z,3288
2018-09-01T08:08:19.278Z,3308
2018-09-01T08:09:28.312Z,3320
2018-09-01T08:10:38.151Z,3336
2018-09-01T08:11:47.722Z,3344
2018-09-01T08:12:57.028Z,3348
2018-09-01T08:14:08.060Z,3344
2018-09-01T08:15:17.661Z,3344
2018-09-01T08:16:27.778Z,3356
2018-09-01T08:17:37.893Z,3352
2018-09-01T08:18:47.736Z,3380
2018-09-01T08:19:57.310Z,3404
2018-09-01T08:21:06.405Z,3444
2018-09-01T08:22:16.311Z,3452
2018-09-01T08:23:26.157Z,3428
2018-09-01T08:24:35.730Z,3672
2018-09-01T08:25:45.308Z,3856
2018-09-01T08:26:54.618Z,4112
2018-09-01T08:28:03.925Z,4060
2018-09-01T08:29:13.768Z,3988
2018-09-01T08:30:23.614Z,3960
2018-09-01T08:31:32.921Z,4004
2018-09-01T08:32:42.768Z,4188
2018-09-01T08:33:52.721Z,4344
2018-09-01T08:35:02.895Z,4732
2018-09-01T08:36:13.005Z,5040
2018-09-01T08:37:23.120Z,5056
2018-09-01T08:38:32.474Z,5100
2018-09-01T08:39:42.589Z,5036
2018-09-01T08:40:52.168Z,4928
2018-09-01T08:42:02.298Z,4708
2018-09-01T08:43:11.606Z,4684
2018-09-01T08:44:21.455Z,5140
2018-09-01T08:45:31.962Z,5776
2018-09-01T08:46:42.082Z,6384
2018-09-01T08:47:51.385Z,6572
2018-09-01T08:49:01.242Z,7416
2018-09-01T08:50:11.359Z,8604
2018-09-01T08:51:20.671Z,9016
2018-09-01T08:52:30.782Z,9008
2018-09-01T08:53:40.350Z,8956
2018-09-01T08:54:49.934Z,8992
2018-09-01T08:55:59.783Z,9516
2018-09-01T08:57:09.628Z,10072
2018-09-01T08:58:19.740Z,10320
2018-09-01T08:59:29.314Z,9576
2018-09-01T09:00:38.892Z,8672
2018-09-01T09:01:48.198Z,7740
2018-09-01T09:02:57.785Z,7256
2018-09-01T09:04:07.366Z,7472
2018-09-01T09:05:16.671Z,7800
2018-09-01T09:06:25.974Z,7976
2018-09-01T09:07:35.289Z,7884
2018-09-01T09:08:44.875Z,7644
2018-09-01T09:09:54.461Z,7008
2018-09-01T09:11:04.305Z,6912
2018-09-01T09:12:14.151Z,7164
2018-09-01T09:13:23.990Z,7184
2018-09-01T09:14:33.834Z,7864
2018-09-01T09:15:43.144Z,8244
2018-09-01T09:16:52.718Z,8604
2018-09-01T09:18:02.567Z,8704
2018-09-01T09:19:12.145Z,8728
2018-09-01T09:20:21.725Z,8708
2018-09-01T09:21:31.030Z,8124
2018-09-01T09:22:41.147Z,8184
2018-09-01T09:23:50.997Z,8640
2018-09-01T09:25:00.629Z,8924
2018-09-01T09:26:09.936Z,8656
2018-09-01T09:27:19.783Z,9328
2018-09-01T09:28:29.089Z,9392
2018-09-01T09:29:38.934Z,9348
2018-09-01T09:30:48.784Z,8968
2018-09-01T09:31:58.631Z,8940
2018-09-01T09:33:08.205Z,8812
2018-09-01T09:34:17.510Z,8784
2018-09-01T09:35:27.363Z,8928
2018-09-01T09:36:36.943Z,9204
2018-09-01T09:37:46.798Z,9016
2018-09-01T09:38:56.111Z,9588
2018-09-01T09:40:05.953Z,10436
2018-09-01T09:41:15.526Z,9888
2018-09-01T09:42:25.371Z,9252
2018-09-01T09:43:35.218Z,8976
2018-09-01T09:44:44.798Z,8696
2018-09-01T09:45:53.833Z,8476
2018-09-01T09:47:03.686Z,9128
2018-09-01T09:48:13.602Z,9948
2018-09-01T09:49:22.647Z,10352
2018-09-01T09:50:32.498Z,9848
2018-09-01T09:51:42.349Z,9488
2018-09-01T09:52:52.232Z,8972
2018-09-01T09:54:02.409Z,8508
2018-09-01T09:55:11.991Z,8536
2018-09-01T09:56:21.298Z,8432
2018-09-01T09:57:30.609Z,8340
2018-09-01T09:58:40.194Z,8648
2018-09-01T09:59:50.046Z,9060
2018-09-01T10:00:59.784Z,9312
2018-09-01T10:02:09.456Z,8848
2018-09-01T10:03:19.579Z,8120
2018-09-01T10:04:28.939Z,7480
2018-09-01T10:05:38.803Z,6988
2018-09-01T10:06:48.549Z,6636
2018-09-01T10:07:58.660Z,6508
2018-09-01T10:09:08.530Z,6444
2018-09-01T10:10:17.836Z,6444
2018-09-01T10:11:27.961Z,6604
2018-09-01T10:12:38.071Z,6760
2018-09-01T10:13:47.646Z,6812
2018-09-01T10:14:56.950Z,6784
2018-09-01T10:16:07.007Z,7028
2018-09-01T10:17:16.312Z,7212
2018-09-01T10:18:26.439Z,7576
2018-09-01T10:19:36.286Z,7748
2018-09-01T10:20:46.081Z,7956
2018-09-01T10:21:56.205Z,8408
2018-09-01T10:23:06.377Z,9164
2018-09-01T10:24:16.231Z,10136
2018-09-01T10:25:26.092Z,11364
2018-09-01T10:26:35.665Z,12612
2018-09-01T10:27:45.793Z,13592
2018-09-01T10:28:55.427Z,13732
2018-09-01T10:30:05.548Z,12976
2018-09-01T10:31:15.393Z,12088
2018-09-01T10:32:24.966Z,11820
2018-09-01T10:33:34.544Z,11532
2018-09-01T10:34:44.412Z,11412
2018-09-01T10:35:54.384Z,11532
2018-09-01T10:37:04.241Z,11756
2018-09-01T10:38:14.099Z,12500
2018-09-01T10:39:24.276Z,12700
2018-09-01T10:40:33.584Z,12300
2018-09-01T10:41:42.891Z,11404
2018-09-01T10:42:52.749Z,10216
2018-09-01T10:44:02.325Z,9688
2018-09-01T10:45:12.171Z,9896
2018-09-01T10:46:22.022Z,10444
2018-09-01T10:47:32.207Z,10460
2018-09-01T10:48:42.054Z,10188
2018-09-01T10:49:51.626Z,10268
2018-09-01T10:51:01.255Z,10136
2018-09-01T10:52:10.562Z,10300
2018-09-01T10:53:20.139Z,10444
2018-09-01T10:54:29.721Z,10316
2018-09-01T10:55:38.752Z,10556
2018-09-01T10:56:48.865Z,11068
2018-09-01T10:57:58.715Z,11068
2018-09-01T10:59:09.112Z,10736
2018-09-01T11:00:19.176Z,10464
2018-09-01T11:01:28.750Z,10340
2018-09-01T11:02:38.058Z,9196
2018-09-01T11:03:47.905Z,8688
2018-09-01T11:04:57.488Z,9828
2018-09-01T11:06:07.623Z,11476
2018-09-01T11:07:17.206Z,11924
2018-09-01T11:08:27.327Z,11080
2018-09-01T11:09:37.182Z,10396
2018-09-01T11:10:47.035Z,9920
2018-09-01T11:11:56.083Z,9640
2018-09-01T11:13:05.393Z,8652
2018-09-01T11:14:15.246Z,8480
2018-09-01T11:15:24.837Z,8460
2018-09-01T11:16:34.435Z,8340
2018-09-01T11:17:44.068Z,8432
2018-09-01T11:18:53.761Z,8924
2018-09-01T11:20:04.126Z,8960
2018-09-01T11:21:14.367Z,9152
2018-09-01T11:22:23.939Z,9232
2018-09-01T11:23:33.522Z,9044
2018-09-01T11:24:42.829Z,9408
2018-09-01T11:25:51.593Z,10036
2018-09-01T11:27:01.747Z,10408
2018-09-01T11:28:12.253Z,10856
2018-09-01T11:29:22.362Z,11120
2018-09-01T11:30:31.671Z,11360
2018-09-01T11:31:41.255Z,11756
2018-09-01T11:32:50.565Z,12468
2018-09-01T11:34:00.425Z,13172
2018-09-01T11:35:09.736Z,13780
2018-09-01T11:36:19.047Z,14052
2018-09-01T11:37:28.890Z,13696
2018-09-01T11:38:38.774Z,13616
2018-09-01T11:39:48.625Z,14088
2018-09-01T11:40:58.479Z,14592
2018-09-01T11:42:07.513Z,14892
2018-09-01T11:43:17.895Z,14776
2018-09-01T11:44:27.658Z,14444
2018-09-01T11:45:37.775Z,14684
2018-09-01T11:46:47.897Z,14584
2018-09-01T11:47:58.027Z,15296
2018-09-01T11:49:07.883Z,15728
2018-09-01T11:50:17.460Z,16160
2018-09-01T11:51:27.310Z,16480
2018-09-01T11:52:37.153Z,16768
2018-09-01T11:53:46.991Z,17408
2018-09-01T11:54:56.901Z,17728
2018-09-01T11:56:06.746Z,17888
2018-09-01T11:57:16.334Z,16228
2018-09-01T11:58:26.202Z,16544
2018-09-01T11:59:36.424Z,21504
2018-09-01T12:00:46.634Z,16928
2018-09-01T12:01:56.485Z,16576
2018-09-01T12:03:06.335Z,17056
2018-09-01T12:04:15.374Z,15936
2018-09-01T12:05:25.229Z,17280
2018-09-01T12:06:34.860Z,18336
2018-09-01T12:07:44.701Z,20128
2018-09-01T12:08:54.619Z,26080
2018-09-01T12:10:04.996Z,23296
2018-09-01T12:11:14.852Z,20896
2018-09-01T12:12:24.428Z,34944
2018-09-01T12:13:34.014Z,24800
2018-09-01T12:14:44.132Z,18400
2018-09-01T12:15:52.996Z,17536
2018-09-01T12:17:02.839Z,17696
2018-09-01T12:18:12.471Z,21824
2018-09-01T12:19:22.654Z,17856
2018-09-01T12:20:32.235Z,16228
2018-09-01T12:21:41.540Z,15492
2018-09-01T12:22:51.394Z,15144
2018-09-01T12:24:01.252Z,15320
2018-09-01T12:25:10.566Z,15508
2018-09-01T12:26:20.685Z,15548
2018-09-01T12:27:30.269Z,15304
2018-09-01T12:28:40.384Z,15088
2018-09-01T12:29:49.744Z,15092
2018-09-01T12:30:59.595Z,15256
2018-09-01T12:32:08.904Z,15880
2018-09-01T12:33:19.027Z,17280
2018-09-01T12:34:29.156Z,18560
2018-09-01T12:35:39.028Z,18368
2018-09-01T12:36:49.144Z,17920
2018-09-01T12:37:58.994Z,19072
2018-09-01T12:39:08.307Z,21824
2018-09-01T12:40:18.161Z,19680
2018-09-01T12:41:28.015Z,17824
2018-09-01T12:42:37.870Z,17216
2018-09-01T12:43:47.718Z,17088
2018-09-01T12:44:57.296Z,18496
2018-09-01T12:46:06.338Z,24256
2018-09-01T12:47:15.916Z,24800
2018-09-01T12:48:26.041Z,19552
2018-09-01T12:49:35.900Z,18272
2018-09-01T12:50:45.216Z,17600
2018-09-01T12:51:55.337Z,18336
2018-09-01T12:53:04.733Z,19520
2018-09-01T12:54:15.011Z,20672
2018-09-01T12:55:24.591Z,21824
2018-09-01T12:56:34.167Z,21888
2018-09-01T12:57:43.203Z,20608
2018-09-01T12:58:53.321Z,19712
2018-09-01T13:00:03.443Z,21408
2018-09-01T13:01:13.024Z,23776
2018-09-01T13:02:22.604Z,21824
2018-09-01T13:03:32.731Z,22144
2018-09-01T13:04:42.314Z,23776
2018-09-01T13:05:51.631Z,21408
2018-09-01T13:07:01.475Z,20384
2018-09-01T13:08:11.596Z,21888
2018-09-01T13:09:21.179Z,20544
2018-09-01T13:10:31.293Z,20832
2018-09-01T13:11:41.145Z,21472
2018-09-01T13:12:50.727Z,22592
2018-09-01T13:14:00.314Z,20608
2018-09-01T13:15:10.440Z,20736
2018-09-01T13:16:20.291Z,20288
2018-09-01T13:17:29.881Z,20000
2018-09-01T13:18:39.465Z,28448
2018-09-01T13:19:48.999Z,25280
2018-09-01T13:20:58.848Z,22720
2018-09-01T13:22:08.493Z,24352
2018-09-01T13:23:18.620Z,26336
2018-09-01T13:24:28.200Z,21952
2018-09-01T13:25:38.160Z,18784
2018-09-01T13:26:47.742Z,17728
2018-09-01T13:27:57.920Z,17472
2018-09-01T13:29:07.780Z,18176
2018-09-01T13:30:17.633Z,18432
2018-09-01T13:31:27.207Z,17952
2018-09-01T13:32:37.061Z,17824
2018-09-01T13:33:46.647Z,17088
2018-09-01T13:34:56.499Z,16388
2018-09-01T13:36:06.387Z,15508
2018-09-01T13:37:16.235Z,14980
2018-09-01T13:38:26.442Z,13580
2018-09-01T13:39:35.479Z,13220
2018-09-01T13:40:45.338Z,12260
2018-09-01T13:41:54.381Z,12204
2018-09-01T13:43:03.964Z,11660
2018-09-01T13:44:13.555Z,10940
2018-09-01T13:45:23.186Z,11280
2018-09-01T13:46:32.762Z,12564
2018-09-01T13:47:42.889Z,12768
2018-09-01T13:48:51.926Z,12548
2018-09-01T13:50:01.777Z,12884
2018-09-01T13:51:11.135Z,12408
2018-09-01T13:52:21.003Z,13376
2018-09-01T13:53:30.856Z,11608
2018-09-01T13:54:40.432Z,12080
2018-09-01T13:55:50.332Z,11956
2018-09-01T13:56:59.913Z,11428
2018-09-01T13:58:10.046Z,11468
2018-09-01T13:59:19.892Z,12832
2018-09-01T14:00:29.209Z,14032
2018-09-01T14:01:38.792Z,14640
2018-09-01T14:02:48.646Z,13984
2018-09-01T14:03:58.501Z,13288
2018-09-01T14:05:08.623Z,13488
2018-09-01T14:06:17.934Z,13796
2018-09-01T14:07:26.975Z,14936
2018-09-01T14:08:36.607Z,15924
2018-09-01T14:09:46.457Z,15952
2018-09-01T14:10:56.038Z,15876
2018-09-01T14:12:06.147Z,16000
2018-09-01T14:13:15.728Z,15936
2018-09-01T14:14:26.280Z,15764
2018-09-01T14:15:36.211Z,15268
2018-09-01T14:16:46.060Z,16528
2018-09-01T14:17:55.641Z,19808
2018-09-01T14:19:05.221Z,22272
2018-09-01T14:20:15.131Z,20640
2018-09-01T14:21:24.711Z,18720
2018-09-01T14:22:34.560Z,17760
2018-09-01T14:23:44.152Z,18496
2018-09-01T14:24:53.729Z,27136
2018-09-01T14:26:03.848Z,28832
2018-09-01T14:27:13.448Z,19968
2018-09-01T14:28:23.296Z,17632
2018-09-01T14:29:33.151Z,20448
2018-09-01T14:30:43.002Z,41152
2018-09-01T14:31:52.863Z,61280
2018-09-01T14:33:03.243Z,81184
2018-09-01T14:34:13.579Z,85952
2018-09-01T14:35:24.205Z,79360
2018-09-01T14:36:34.391Z,75424
2018-09-01T14:37:45.061Z,78496
2018-09-01T14:38:54.911Z,78304
2018-09-01T14:40:04.488Z,75680
2018-09-01T14:41:14.071Z,74048
2018-09-01T14:42:23.655Z,75104
2018-09-01T14:43:33.245Z,74720
2018-09-01T14:44:42.556Z,76064
2018-09-01T14:45:51.892Z,76672
2018-09-01T14:47:02.295Z,74208
2018-09-01T14:48:11.654Z,73088
2018-09-01T14:49:21.512Z,38336
2018-09-01T14:50:31.099Z,30368
2018-09-01T14:51:40.963Z,46240
2018-09-01T14:52:51.090Z,71840
2018-09-01T14:54:00.955Z,74016
2018-09-01T14:55:10.879Z,75392
2018-09-01T14:56:21.003Z,79136
2018-09-01T14:57:30.871Z,76896
2018-09-01T14:58:40.730Z,13968
2018-09-01T14:59:50.861Z,15140
2018-09-01T15:01:00.455Z,73952
2018-09-01T15:02:10.325Z,77536
2018-09-01T15:03:20.453Z,76256
2018-09-01T15:04:30.579Z,72576
2018-09-01T15:05:40.713Z,73280
2018-09-01T15:06:50.625Z,56288
2018-09-01T15:07:59.944Z,73632
2018-09-01T15:09:09.535Z,15320
2018-09-01T15:10:19.637Z,13128
2018-09-01T15:11:29.965Z,13432
2018-09-01T15:12:39.283Z,14252
2018-09-01T15:13:49.148Z,69664
2018-09-01T15:14:58.466Z,66944
2018-09-01T15:16:07.516Z,14028
2018-09-01T15:17:17.104Z,14268
2018-09-01T15:18:26.692Z,60064
2018-09-01T15:19:36.554Z,66944
2018-09-01T15:20:46.407Z,63200
2018-09-01T15:21:55.725Z,58432
2018-09-01T15:23:05.847Z,9292
2018-09-01T15:24:15.702Z,11668
2018-09-01T15:25:25.017Z,30048
2018-09-01T15:26:34.875Z,13864
2018-09-01T15:27:44.727Z,7448
2018-09-01T15:28:54.322Z,6644
2018-09-01T15:30:04.460Z,6228
2018-09-01T15:31:14.588Z,6428
2018-09-01T15:32:24.237Z,5668
2018-09-01T15:33:34.480Z,5068
2018-09-01T15:34:44.332Z,4780
2018-09-01T15:35:53.918Z,4568
2018-09-01T15:37:03.777Z,4460
2018-09-01T15:38:13.625Z,4292
2018-09-01T15:39:23.759Z,4140
2018-09-01T15:40:33.354Z,4096
2018-09-01T15:41:42.928Z,3920
2018-09-01T15:42:52.518Z,3936
2018-09-01T15:44:02.640Z,3920
2018-09-01T15:45:12.499Z,3952
2018-09-01T15:46:22.080Z,3932